Time;durP1;ratioP1;P1;durP2;ratioP2;P2;SDS_P1;SDS_P2;PMS_P1;PMS_P2;Temp;Humidity;BMP_temperature;BMP_pressure;BME280_temperature;BME280_humidity;BME280_pressure;Samples;Min_cycle;Max_cycle;Signal;HPM_P1;HPM_P2
2023/05/07 00:03:01;;;;;;;7.62;2.50;;;13.30;99.90;;;;;;7315132;32;20376;-56
2023/05/07 00:07:03;;;;;;;5.20;2.58;;;13.30;99.90;;;;;;7316558;32;20241;-56
2023/05/07 00:11:05;;;;;;;4.50;2.00;;;13.20;99.90;;;;;;7300964;32;20131;-57
2023/05/07 00:15:07;;;;;;;5.68;2.17;;;13.20;99.90;;;;;;7314634;32;20263;-55
2023/05/07 00:19:09;;;;;;;4.93;2.17;;;13.20;99.90;;;;;;7310141;32;20128;-56
2023/05/07 00:23:11;;;;;;;3.92;2.22;;;13.20;99.90;;;;;;7298625;32;20453;-56
2023/05/07 00:27:13;;;;;;;2.87;2.50;;;13.20;99.90;;;;;;7316558;32;20565;-56
2023/05/07 00:31:14;;;;;;;5.47;2.45;;;13.10;99.90;;;;;;7303629;32;20104;-56
2023/05/07 00:35:16;;;;;;;4.30;3.00;;;13.10;99.90;;;;;;7313816;32;20158;-57
2023/05/07 00:39:18;;;;;;;3.17;2.20;;;13.10;99.90;;;;;;7303472;32;20211;-55
2023/05/07 00:43:20;;;;;;;4.43;2.62;;;13.00;99.90;;;;;;7301969;32;20211;-56
2023/05/07 00:47:22;;;;;;;6.97;2.70;;;13.00;99.90;;;;;;7304072;32;20187;-57
2023/05/07 00:51:25;;;;;;;2.55;2.03;;;13.00;99.90;;;;;;7304547;32;20108;-57
2023/05/07 00:55:26;;;;;;;4.93;2.30;;;12.90;99.90;;;;;;7308892;32;20483;-58
2023/05/07 00:59:28;;;;;;;6.05;2.67;;;12.80;99.90;;;;;;7298611;32;20107;-56
2023/05/07 01:03:30;;;;;;;7.97;2.35;;;12.70;99.90;;;;;;7303163;32;20255;-56
2023/05/07 01:07:33;;;;;;;4.25;2.08;;;12.60;99.90;;;;;;7305860;32;20142;-56
2023/05/07 01:11:35;;;;;;;4.35;2.30;;;12.50;99.90;;;;;;7312144;32;20236;-56
2023/05/07 01:15:37;;;;;;;2.33;2.12;;;12.50;99.90;;;;;;7300183;32;20538;-56
2023/05/07 01:19:39;;;;;;;6.80;2.45;;;12.40;99.90;;;;;;7302197;32;20128;-56
2023/05/07 01:23:41;;;;;;;5.43;2.60;;;12.40;99.90;;;;;;7305488;32;20096;-56
2023/05/07 01:27:43;;;;;;;6.40;2.55;;;12.50;99.90;;;;;;7305530;32;20874;-56
2023/05/07 01:31:46;;;;;;;7.12;2.53;;;12.40;99.90;;;;;;7299836;32;20099;-56
2023/05/07 01:35:51;;;;;;;4.10;2.35;;;12.40;99.90;;;;;;7310180;32;20550;-57
2023/05/07 01:39:53;;;;;;;5.62;2.50;;;12.40;99.90;;;;;;7298611;32;20489;-57
2023/05/07 01:43:56;;;;;;;4.90;2.60;;;12.40;99.90;;;;;;7295081;32;20281;-56
2023/05/07 01:47:59;;;;;;;5.35;2.60;;;12.30;99.90;;;;;;7301861;32;20157;-56
2023/05/07 01:52:01;;;;;;;3.35;2.53;;;12.30;99.90;;;;;;7305154;32;20116;-56
2023/05/07 01:56:03;;;;;;;10.75;2.90;;;12.30;99.90;;;;;;7305235;32;20130;-58
2023/05/07 02:00:06;;;;;;;9.45;2.67;;;12.30;99.90;;;;;;7296332;32;20248;-56
2023/05/07 02:04:07;;;;;;;5.62;2.50;;;12.20;99.90;;;;;;7306200;32;20125;-55
2023/05/07 02:08:09;;;;;;;2.60;2.30;;;12.20;99.90;;;;;;7303091;32;20497;-55
2023/05/07 02:12:11;;;;;;;5.25;2.65;;;12.20;99.90;;;;;;7300102;32;20108;-56
2023/05/07 02:16:14;;;;;;;7.45;2.90;;;12.20;99.90;;;;;;7300025;32;20123;-56
2023/05/07 02:20:16;;;;;;;4.57;2.60;;;12.10;99.90;;;;;;7284255;32;20136;-55
2023/05/07 02:24:17;;;;;;;6.53;2.72;;;12.10;99.90;;;;;;7305585;32;20194;-56
2023/05/07 02:28:19;;;;;;;13.35;3.40;;;12.10;99.90;;;;;;7290753;32;20247;-56
2023/05/07 02:32:22;;;;;;;6.62;2.50;;;12.00;99.90;;;;;;7296891;32;20738;-56
2023/05/07 02:36:24;;;;;;;4.47;2.28;;;11.90;99.90;;;;;;7305382;32;20290;-57
2023/05/07 02:40:26;;;;;;;5.53;3.03;;;11.90;99.90;;;;;;7306061;32;20191;-56
2023/05/07 02:44:31;;;;;;;5.40;2.20;;;11.80;99.90;;;;;;7305183;32;20096;-56
2023/05/07 02:48:33;;;;;;;5.43;2.40;;;11.80;99.90;;;;;;7302195;32;20165;-57
2023/05/07 02:52:35;;;;;;;5.55;2.37;;;11.70;99.90;;;;;;7305845;32;20123;-56
2023/05/07 02:56:36;;;;;;;5.20;2.85;;;11.70;99.90;;;;;;7305323;32;20232;-55
2023/05/07 03:00:38;;;;;;;4.20;2.08;;;11.70;99.90;;;;;;7306009;32;20643;-56
2023/05/07 03:04:40;;;;;;;5.10;2.47;;;11.60;99.90;;;;;;7307007;32;20261;-56
2023/05/07 03:08:41;;;;;;;5.72;2.20;;;11.50;99.90;;;;;;7305501;32;20226;-56
2023/05/07 03:12:43;;;;;;;6.53;2.92;;;11.40;99.90;;;;;;7316669;32;20248;-56
2023/05/07 03:16:45;;;;;;;4.35;2.70;;;11.40;99.90;;;;;;7310015;32;20126;-57
2023/05/07 03:20:48;;;;;;;8.15;3.08;;;11.40;99.90;;;;;;7303915;32;20385;-56
2023/05/07 03:24:50;;;;;;;5.10;2.70;;;11.30;99.90;;;;;;7304609;32;20153;-56
2023/05/07 03:28:52;;;;;;;5.80;3.10;;;11.30;99.90;;;;;;7310306;32;20136;-57
2023/05/07 03:32:54;;;;;;;6.65;2.62;;;11.30;99.90;;;;;;7306662;32;20179;-56
2023/05/07 03:36:56;;;;;;;5.30;2.95;;;11.30;99.90;;;;;;7303358;32;20123;-57
2023/05/07 03:40:57;;;;;;;4.90;2.60;;;11.30;99.90;;;;;;7312331;32;20329;-56
2023/05/07 03:44:59;;;;;;;7.20;2.35;;;11.20;99.90;;;;;;7309808;32;20227;-57
2023/05/07 03:49:01;;;;;;;3.42;2.45;;;11.20;99.90;;;;;;7311900;32;20127;-56
2023/05/07 03:53:02;;;;;;;6.62;2.90;;;11.20;99.90;;;;;;7306833;32;20103;-58
2023/05/07 03:57:04;;;;;;;6.40;2.97;;;11.20;99.90;;;;;;7300367;32;20104;-55
2023/05/07 04:01:07;;;;;;;4.20;2.45;;;11.20;99.90;;;;;;7301214;32;20867;-56
2023/05/07 04:05:09;;;;;;;6.28;3.10;;;11.20;99.90;;;;;;7300543;32;20122;-56
2023/05/07 04:09:11;;;;;;;4.78;2.67;;;11.20;99.90;;;;;;7307177;32;20119;-55
2023/05/07 04:13:13;;;;;;;17.80;3.45;;;11.30;99.90;;;;;;7310208;32;20222;-56
2023/05/07 04:17:14;;;;;;;10.77;2.90;;;11.30;99.90;;;;;;7299654;32;20539;-57
2023/05/07 04:21:20;;;;;;;8.57;2.85;;;11.30;99.90;;;;;;7301852;32;20326;-57
2023/05/07 04:25:26;;;;;;;10.15;2.95;;;11.30;99.90;;;;;;7298627;32;20730;-55
2023/05/07 04:29:28;;;;;;;5.75;2.50;;;11.30;99.90;;;;;;7298258;32;20147;-56
2023/05/07 04:33:30;;;;;;;3.87;2.22;;;11.40;99.90;;;;;;7302520;32;20127;-56
2023/05/07 04:37:32;;;;;;;3.33;2.33;;;11.50;99.90;;;;;;7303084;32;20136;-56
2023/05/07 04:41:36;;;;;;;5.65;2.40;;;11.50;99.90;;;;;;7299819;32;20181;-55
2023/05/07 04:45:40;;;;;;;8.43;2.70;;;11.50;99.90;;;;;;7298105;32;20131;-57
2023/05/07 04:49:42;;;;;;;7.87;2.85;;;11.60;99.90;;;;;;7309577;32;20231;-57
2023/05/07 04:53:43;;;;;;;2.92;2.20;;;11.70;99.90;;;;;;7301902;32;20219;-56
2023/05/07 04:57:45;;;;;;;3.78;2.50;;;11.80;99.90;;;;;;7298969;32;20241;-56
2023/05/07 05:01:47;;;;;;;4.65;1.98;;;11.80;99.90;;;;;;7306329;32;20132;-56
2023/05/07 05:05:52;;;;;;;5.43;2.10;;;11.90;99.90;;;;;;7297786;32;20250;-56
2023/05/07 05:09:55;;;;;;;8.32;2.28;;;11.90;99.90;;;;;;7298571;32;20117;-56
2023/05/07 05:13:57;;;;;;;4.07;2.60;;;12.00;99.90;;;;;;7310343;32;20211;-56
2023/05/07 05:17:58;;;;;;;6.20;2.50;;;12.10;99.90;;;;;;7303733;32;20136;-56
2023/05/07 05:22:01;;;;;;;3.30;1.80;;;12.20;99.90;;;;;;7296916;32;20138;-55
2023/05/07 05:26:02;;;;;;;3.05;2.47;;;12.30;99.90;;;;;;7298928;32;20104;-56
2023/05/07 05:30:05;;;;;;;4.40;2.42;;;12.40;99.90;;;;;;7303260;32;20528;-56
2023/05/07 05:34:07;;;;;;;6.12;2.37;;;12.50;99.90;;;;;;7296181;32;20218;-57
2023/05/07 05:38:08;;;;;;;5.07;2.12;;;12.60;99.90;;;;;;7300297;32;20137;-57
2023/05/07 05:42:10;;;;;;;6.30;2.20;;;12.80;99.90;;;;;;7298919;32;20115;-57
2023/05/07 05:46:12;;;;;;;3.53;1.92;;;12.90;99.90;;;;;;7298945;32;20209;-57
2023/05/07 05:50:14;;;;;;;4.03;1.98;;;13.10;99.90;;;;;;7299390;32;20100;-57
2023/05/07 05:54:17;;;;;;;5.53;2.33;;;13.30;99.90;;;;;;7296573;32;20187;-56
2023/05/07 05:58:18;;;;;;;5.62;2.30;;;13.50;99.90;;;;;;7307484;32;20104;-56
2023/05/07 06:02:20;;;;;;;5.40;1.87;;;13.70;99.90;;;;;;7303892;32;20541;-56
2023/05/07 06:06:22;;;;;;;2.75;1.48;;;13.90;99.90;;;;;;7309180;32;20173;-57
2023/05/07 06:10:24;;;;;;;4.32;1.87;;;13.90;99.90;;;;;;7302537;32;20120;-57
2023/05/07 06:14:26;;;;;;;3.90;2.12;;;14.10;99.90;;;;;;7302365;32;20249;-56
2023/05/07 06:18:27;;;;;;;3.37;1.60;;;14.30;99.90;;;;;;7303249;32;20666;-57
2023/05/07 06:22:29;;;;;;;2.67;1.42;;;14.50;99.90;;;;;;7290997;32;20242;-57
2023/05/07 06:26:31;;;;;;;2.00;1.35;;;14.80;99.90;;;;;;7305060;32;20128;-58
2023/05/07 06:30:32;;;;;;;1.95;1.60;;;15.10;99.90;;;;;;7314992;32;20513;-58
2023/05/07 06:34:34;;;;;;;2.65;1.40;;;15.30;99.90;;;;;;7306286;32;20096;-58
2023/05/07 06:38:36;;;;;;;2.28;1.70;;;15.40;99.90;;;;;;7308001;32;20099;-57
2023/05/07 06:42:37;;;;;;;2.55;1.40;;;15.50;99.90;;;;;;7307415;32;20221;-57
2023/05/07 06:46:39;;;;;;;4.47;1.40;;;15.60;99.90;;;;;;7298234;32;20147;-56
2023/05/07 06:50:42;;;;;;;2.95;1.35;;;15.80;99.90;;;;;;7309387;32;20219;-57
2023/05/07 06:54:43;;;;;;;4.68;1.45;;;15.90;99.90;;;;;;7302463;32;20108;-57
2023/05/07 06:58:45;;;;;;;4.60;1.35;;;16.00;99.90;;;;;;7306977;32;21034;-58
2023/05/07 07:02:47;;;;;;;2.65;1.20;;;16.20;99.90;;;;;;7303920;32;20237;-57
2023/05/07 07:06:48;;;;;;;1.77;1.30;;;16.30;99.90;;;;;;7303837;32;20139;-63
2023/05/07 07:10:50;;;;;;;3.75;1.70;;;16.40;99.90;;;;;;7306902;32;20313;-56
2023/05/07 07:14:52;;;;;;;2.58;1.48;;;16.20;99.90;;;;;;7302994;32;20258;-57
2023/05/07 07:18:55;;;;;;;4.47;1.30;;;16.30;99.90;;;;;;7304176;32;20119;-57
2023/05/07 07:22:57;;;;;;;4.43;1.40;;;16.60;99.90;;;;;;7304487;32;20166;-57
2023/05/07 07:26:59;;;;;;;6.75;1.40;;;17.20;99.90;;;;;;7294823;32;20096;-57
2023/05/07 07:31:00;;;;;;;2.78;1.30;;;17.30;99.90;;;;;;7303137;32;20100;-57
2023/05/07 07:35:02;;;;;;;4.68;1.40;;;17.30;99.90;;;;;;7305933;32;20105;-60
2023/05/07 07:39:04;;;;;;;2.78;1.17;;;17.70;99.90;;;;;;7305843;32;20092;-60
2023/05/07 07:43:06;;;;;;;4.95;1.30;;;18.00;99.90;;;;;;7307944;32;20237;-60
2023/05/07 07:47:08;;;;;;;2.58;1.15;;;18.10;99.90;;;;;;7306600;32;20840;-57
2023/05/07 07:51:10;;;;;;;2.50;1.17;;;18.30;99.90;;;;;;7302435;32;20508;-54
2023/05/07 07:55:12;;;;;;;2.53;1.25;;;18.30;99.90;;;;;;7302514;32;20111;-55
2023/05/07 07:59:17;;;;;;;2.62;1.02;;;18.50;99.90;;;;;;7309116;32;20842;-57
2023/05/07 08:03:19;;;;;;;3.35;1.23;;;18.50;99.90;;;;;;7301554;32;20632;-57
2023/05/07 08:07:22;;;;;;;3.62;1.20;;;18.80;99.90;;;;;;7302387;32;20148;-57
2023/05/07 08:11:25;;;;;;;2.08;1.10;;;18.90;99.90;;;;;;7310824;32;20138;-58
2023/05/07 08:15:26;;;;;;;2.97;1.10;;;19.00;99.90;;;;;;7307901;32;20091;-58
2023/05/07 08:19:28;;;;;;;1.95;1.40;;;19.20;99.90;;;;;;7302403;32;20601;-57
2023/05/07 08:23:30;;;;;;;3.53;1.20;;;19.40;99.90;;;;;;7304525;32;20225;-55
2023/05/07 08:27:32;;;;;;;4.28;1.20;;;19.50;99.90;;;;;;7276699;32;20725;-57
2023/05/07 08:31:33;;;;;;;2.78;1.12;;;19.50;99.90;;;;;;7304171;32;20206;-56
2023/05/07 08:35:35;;;;;;;2.70;1.02;;;19.60;99.90;;;;;;7307533;32;20130;-57
2023/05/07 08:39:37;;;;;;;4.93;1.30;;;19.90;99.90;;;;;;7305499;32;20126;-56
2023/05/07 08:43:41;;;;;;;2.33;0.88;;;20.00;99.90;;;;;;7301959;32;20103;-56
2023/05/07 08:47:46;;;;;;;2.37;1.10;;;21.50;99.90;;;;;;7305990;32;20170;-56
2023/05/07 08:51:48;;;;;;;2.20;1.12;;;21.70;99.90;;;;;;7306284;32;20716;-55
2023/05/07 08:55:51;;;;;;;1.30;0.88;;;22.80;99.90;;;;;;7301342;32;20139;-54
2023/05/07 08:59:52;;;;;;;2.05;0.80;;;23.40;99.90;;;;;;7305480;32;20523;-55
2023/05/07 09:03:54;;;;;;;3.78;1.00;;;23.40;99.90;;;;;;7310641;32;20186;-58
2023/05/07 09:07:59;;;;;;;1.55;0.95;;;22.90;99.90;;;;;;7300893;32;20177;-57
2023/05/07 09:12:03;;;;;;;3.42;1.33;;;22.10;99.90;;;;;;7310274;32;20178;-57
2023/05/07 09:16:12;;;;;;;2.17;0.98;;;21.50;99.90;;;;;;7302824;32;20111;-58
2023/05/07 09:20:14;;;;;;;2.55;0.80;;;22.50;99.90;;;;;;7300734;32;20689;-58
2023/05/07 09:24:16;;;;;;;3.78;1.37;;;23.60;99.90;;;;;;7304802;32;20722;-58
2023/05/07 09:28:18;;;;;;;2.72;0.80;;;23.90;99.90;;;;;;7298340;32;20213;-58
2023/05/07 09:32:20;;;;;;;3.05;0.80;;;23.80;99.90;;;;;;7311107;32;20137;-58
2023/05/07 09:36:22;;;;;;;1.67;0.80;;;24.00;99.90;;;;;;7304020;32;20177;-57
2023/05/07 09:40:26;;;;;;;2.65;1.08;;;24.20;99.90;;;;;;7305458;32;20155;-57
2023/05/07 09:44:27;;;;;;;1.95;0.90;;;23.60;99.90;;;;;;7283960;32;20108;-56
2023/05/07 09:48:29;;;;;;;2.40;1.05;;;23.80;99.90;;;;;;7304869;32;20501;-56
2023/05/07 09:52:35;;;;;;;0.73;0.70;;;23.70;99.90;;;;;;7304150;32;20121;-57
2023/05/07 09:56:37;;;;;;;3.08;0.88;;;23.60;99.90;;;;;;7303064;32;20518;-57
2023/05/07 10:00:40;;;;;;;2.80;0.70;;;23.30;99.90;;;;;;7295333;32;20166;-56
2023/05/07 10:04:43;;;;;;;1.98;0.85;;;22.80;99.90;;;;;;7310404;32;20126;-56
2023/05/07 10:08:45;;;;;;;2.35;0.90;;;22.70;99.90;;;;;;7307905;32;20119;-56
2023/05/07 10:12:47;;;;;;;4.90;1.05;;;22.70;99.90;;;;;;7304648;32;20124;-56
2023/05/07 10:16:49;;;;;;;2.15;0.75;;;23.00;99.90;;;;;;7299122;32;20237;-56
2023/05/07 10:20:52;;;;;;;1.42;0.70;;;23.40;99.90;;;;;;7305694;32;20138;-56
2023/05/07 10:24:59;;;;;;;3.55;0.80;;;24.00;99.90;;;;;;7304924;32;20695;-56
2023/05/07 10:29:12;;;;;;;0.95;0.73;;;24.90;99.90;;;;;;7296581;32;20761;-57
2023/05/07 10:33:16;;;;;;;4.18;0.88;;;25.10;99.90;;;;;;7301422;32;20190;-58
2023/05/07 10:37:18;;;;;;;3.58;0.80;;;24.80;99.90;;;;;;7309319;32;20270;-56
2023/05/07 10:41:21;;;;;;;3.03;0.77;;;24.40;99.90;;;;;;7306730;32;20178;-61
2023/05/07 10:45:23;;;;;;;2.05;0.70;;;25.40;99.90;;;;;;7307831;32;20195;-57
2023/05/07 10:49:25;;;;;;;3.92;0.88;;;25.90;99.90;;;;;;7306542;32;20177;-57
2023/05/07 10:53:27;;;;;;;2.65;0.62;;;26.10;99.90;;;;;;7306160;32;20488;-56
2023/05/07 10:57:35;;;;;;;3.30;0.68;;;25.90;99.90;;;;;;7301933;32;20308;-56
2023/05/07 11:01:54;;;;;;;1.58;0.55;;;26.50;99.90;;;;;;7305718;32;20126;-57
2023/05/07 11:06:15;;;;;;;2.60;0.90;;;25.10;97.30;;;;;;7300921;32;20103;-57
2023/05/07 11:10:17;;;;;;;2.83;0.80;;;24.70;99.90;;;;;;7293519;32;20143;-56
2023/05/07 11:14:42;;;;;;;1.45;0.70;;;24.50;99.90;;;;;;7305476;32;20310;-56
2023/05/07 11:18:51;;;;;;;2.60;0.80;;;24.40;99.90;;;;;;7307161;32;20215;-57
2023/05/07 11:22:55;;;;;;;3.17;0.80;;;24.00;99.90;;;;;;7309384;32;20145;-58
2023/05/07 11:26:58;;;;;;;2.87;0.75;;;24.00;98.90;;;;;;7296966;32;20222;-57
2023/05/07 11:31:00;;;;;;;1.37;0.70;;;24.30;99.90;;;;;;7309963;32;20524;-57
2023/05/07 11:35:02;;;;;;;0.93;0.60;;;24.10;98.90;;;;;;7310452;32;20285;-58
2023/05/07 11:39:03;;;;;;;1.05;0.65;;;24.50;99.90;;;;;;7304235;32;20509;-58
2023/05/07 11:43:11;;;;;;;3.03;0.77;;;24.60;99.90;;;;;;7311489;32;20335;-57
2023/05/07 11:47:20;;;;;;;1.55;0.65;;;24.40;99.90;;;;;;7306978;32;20140;-57
2023/05/07 11:51:25;;;;;;;1.52;0.75;;;24.10;99.90;;;;;;7305126;32;20127;-58
2023/05/07 11:55:27;;;;;;;3.30;1.02;;;23.80;99.90;;;;;;7309486;32;20198;-57
2023/05/07 11:59:29;;;;;;;3.62;0.88;;;23.00;99.90;;;;;;7289096;32;20636;-56
2023/05/07 12:03:31;;;;;;;2.05;0.90;;;22.60;99.90;;;;;;7296702;32;20160;-56
2023/05/07 12:07:37;;;;;;;1.47;0.80;;;22.60;99.90;;;;;;7312397;32;20125;-56
2023/05/07 12:11:39;;;;;;;3.72;0.80;;;22.20;99.90;;;;;;7308783;32;20593;-58
2023/05/07 12:15:42;;;;;;;3.45;0.90;;;22.30;99.90;;;;;;7304258;32;20532;-57
2023/05/07 12:19:44;;;;;;;3.60;1.05;;;22.30;99.90;;;;;;7309217;32;20183;-57
2023/05/07 12:23:47;;;;;;;2.42;1.10;;;22.70;99.90;;;;;;7285955;32;20108;-57
2023/05/07 12:27:53;;;;;;;2.92;1.30;;;22.90;99.90;;;;;;7278554;32;20492;-57
2023/05/07 12:31:55;;;;;;;1.70;0.95;;;22.50;99.90;;;;;;7301582;32;20147;-57
2023/05/07 12:35:56;;;;;;;2.62;1.58;;;22.60;99.90;;;;;;7300033;32;20250;-56
2023/05/07 12:40:10;;;;;;;5.30;1.62;;;22.10;99.90;;;;;;7307795;32;20185;-56
2023/05/07 12:44:14;;;;;;;4.10;1.50;;;21.70;99.90;;;;;;7303715;32;20267;-56
2023/05/07 12:48:17;;;;;;;2.20;1.30;;;21.60;99.90;;;;;;7305063;32;20143;-56
2023/05/07 12:52:19;;;;;;;3.17;1.40;;;21.30;99.90;;;;;;7303766;32;20305;-56
2023/05/07 12:56:21;;;;;;;2.80;1.37;;;20.80;99.90;;;;;;7300262;32;20588;-56
2023/05/07 13:00:38;;;;;;;3.25;1.90;;;20.60;99.90;;;;;;7301584;32;20238;-56
2023/05/07 13:04:40;;;;;;;2.37;1.57;;;20.30;99.90;;;;;;7302134;32;20236;-56
2023/05/07 13:08:45;;;;;;;6.40;2.47;;;20.20;99.90;;;;;;7304271;32;20160;-56
2023/05/07 13:12:46;;;;;;;4.78;2.10;;;20.00;99.90;;;;;;7302729;32;20129;-56
2023/05/07 13:16:49;;;;;;;4.20;1.90;;;19.90;99.90;;;;;;7304515;32;20099;-56
2023/05/07 13:20:51;;;;;;;13.00;3.87;;;19.80;99.90;;;;;;7303738;32;20108;-56
2023/05/07 13:24:52;;;;;;;15.05;5.22;;;19.70;99.90;;;;;;7298926;32;20099;-58
2023/05/07 13:28:54;;;;;;;11.15;6.20;;;18.60;99.90;;;;;;7297820;32;20752;-57
2023/05/07 13:32:56;;;;;;;14.15;6.10;;;17.00;99.90;;;;;;7296697;32;20179;-57
2023/05/07 13:36:58;;;;;;;17.80;6.57;;;16.50;99.90;;;;;;7302226;32;20203;-57
2023/05/07 13:40:59;;;;;;;14.38;7.10;;;16.30;99.90;;;;;;7298764;32;20253;-57
2023/05/07 13:45:04;;;;;;;13.98;7.10;;;16.00;99.90;;;;;;7305016;32;20149;-56
2023/05/07 13:49:06;;;;;;;15.10;8.50;;;15.80;99.90;;;;;;7303520;32;20894;-56
2023/05/07 13:53:08;;;;;;;18.75;12.05;;;15.80;99.90;;;;;;7284995;32;20213;-56
2023/05/07 13:57:10;;;;;;;25.85;14.95;;;15.70;99.90;;;;;;7303900;32;20777;-57
2023/05/07 14:01:11;;;;;;;21.58;15.13;;;15.70;99.90;;;;;;7285374;32;20135;-57
2023/05/07 14:05:13;;;;;;;25.60;15.93;;;15.70;99.90;;;;;;7298511;32;20227;-57
2023/05/07 14:09:15;;;;;;;24.23;15.75;;;15.70;99.90;;;;;;7303578;32;20215;-57
2023/05/07 14:13:17;;;;;;;19.62;15.85;;;15.70;99.90;;;;;;7297626;32;20183;-59
2023/05/07 14:17:19;;;;;;;24.67;17.48;;;15.70;99.90;;;;;;7305629;32;20154;-58
2023/05/07 14:21:21;;;;;;;27.20;19.83;;;15.70;99.90;;;;;;7288419;32;20127;-58
2023/05/07 14:25:23;;;;;;;28.58;17.25;;;15.60;99.90;;;;;;7298778;32;20549;-58
2023/05/07 14:29:25;;;;;;;26.23;16.65;;;15.70;99.90;;;;;;7305889;32;20496;-58
2023/05/07 14:33:27;;;;;;;25.88;17.27;;;15.80;99.90;;;;;;7298373;32;20107;-58
2023/05/07 14:37:28;;;;;;;22.62;16.55;;;15.90;99.90;;;;;;7298740;32;20100;-58
2023/05/07 14:41:31;;;;;;;24.98;17.50;;;15.70;99.90;;;;;;7299836;32;20210;-58
2023/05/07 14:45:33;;;;;;;22.75;17.35;;;15.70;99.90;;;;;;7303472;32;20125;-59
2023/05/07 14:49:35;;;;;;;21.73;16.15;;;15.70;99.90;;;;;;7304510;32;20100;-58
2023/05/07 14:53:37;;;;;;;20.95;15.63;;;15.80;99.90;;;;;;7308655;32;20169;-58
2023/05/07 14:57:40;;;;;;;20.50;15.00;;;15.80;99.90;;;;;;7306845;32;20150;-57
2023/05/07 15:01:45;;;;;;;18.00;14.10;;;15.90;99.90;;;;;;7304648;32;20535;-57
2023/05/07 15:05:46;;;;;;;17.95;14.35;;;15.90;99.90;;;;;;7301454;32;20103;-58
2023/05/07 15:09:48;;;;;;;22.13;14.77;;;16.00;99.90;;;;;;7303146;32;20199;-57
2023/05/07 15:13:50;;;;;;;16.08;14.20;;;15.90;99.90;;;;;;7307807;32;20812;-57
2023/05/07 15:17:51;;;;;;;31.83;25.05;;;16.00;99.90;;;;;;7308931;32;20244;-58
2023/05/07 15:21:53;;;;;;;23.10;18.00;;;16.00;99.90;;;;;;7304443;32;20442;-57
2023/05/07 15:25:55;;;;;;;28.23;20.20;;;16.00;99.90;;;;;;7302209;32;20643;-57
2023/05/07 15:29:57;;;;;;;23.58;17.87;;;16.10;99.90;;;;;;7310925;32;20219;-57
2023/05/07 15:34:00;;;;;;;21.58;17.55;;;16.10;99.90;;;;;;7313487;32;20230;-57
2023/05/07 15:38:02;;;;;;;20.83;15.00;;;16.10;99.90;;;;;;7307616;32;20103;-57
2023/05/07 15:42:04;;;;;;;26.85;17.08;;;16.20;99.90;;;;;;7314947;32;20579;-58
2023/05/07 15:46:06;;;;;;;15.88;14.00;;;16.30;99.90;;;;;;7309711;32;20296;-57
2023/05/07 15:50:08;;;;;;;21.55;16.67;;;16.30;99.90;;;;;;7301128;32;20200;-56
2023/05/07 15:54:10;;;;;;;23.02;17.70;;;16.30;99.90;;;;;;7311472;32;20164;-57
2023/05/07 15:58:11;;;;;;;23.33;17.23;;;16.30;99.90;;;;;;7309716;32;20226;-57
2023/05/07 16:02:13;;;;;;;23.35;17.87;;;16.40;99.90;;;;;;7303978;32;20203;-57
2023/05/07 16:06:15;;;;;;;22.65;16.27;;;16.20;99.90;;;;;;7308585;32;20197;-57
2023/05/07 16:10:17;;;;;;;16.83;13.80;;;16.20;99.90;;;;;;7310098;32;20743;-57
2023/05/07 16:14:19;;;;;;;18.25;14.65;;;16.10;99.90;;;;;;7303211;32;20261;-57
2023/05/07 16:18:20;;;;;;;18.90;15.65;;;16.10;99.90;;;;;;7298064;32;20313;-57
2023/05/07 16:22:24;;;;;;;19.27;14.98;;;16.10;99.90;;;;;;7305793;32;20620;-57
2023/05/07 16:26:26;;;;;;;12.50;10.43;;;16.10;99.90;;;;;;7301802;32;20218;-57
2023/05/07 16:30:27;;;;;;;15.65;11.88;;;16.00;99.90;;;;;;7288499;32;20100;-58
2023/05/07 16:34:29;;;;;;;11.60;10.40;;;16.10;99.90;;;;;;7307565;32;20222;-58
2023/05/07 16:38:33;;;;;;;14.65;10.35;;;16.20;99.90;;;;;;7309394;32;20174;-58
2023/05/07 16:42:35;;;;;;;17.62;11.98;;;16.10;99.90;;;;;;7304436;32;20213;-58
2023/05/07 16:46:37;;;;;;;13.00;10.20;;;16.20;99.90;;;;;;7305893;32;20115;-58
2023/05/07 16:50:40;;;;;;;11.98;8.50;;;16.20;99.90;;;;;;7296829;32;20183;-58
2023/05/07 16:54:41;;;;;;;8.88;7.03;;;16.40;99.90;;;;;;7301124;32;20222;-58
2023/05/07 16:58:43;;;;;;;9.48;8.15;;;16.50;99.90;;;;;;7305681;32;20250;-58
2023/05/07 17:02:45;;;;;;;10.27;8.15;;;16.50;99.90;;;;;;7306751;32;20122;-58
2023/05/07 17:06:47;;;;;;;11.10;8.23;;;16.60;99.90;;;;;;7303929;32;20104;-58
2023/05/07 17:10:49;;;;;;;12.27;8.50;;;16.70;99.90;;;;;;7301359;32;20278;-58
2023/05/07 17:14:51;;;;;;;7.50;6.70;;;16.80;99.90;;;;;;7303811;32;20222;-58
2023/05/07 17:18:52;;;;;;;10.27;8.93;;;16.80;99.90;;;;;;7300228;32;20478;-58
2023/05/07 17:22:54;;;;;;;12.32;8.95;;;16.80;99.90;;;;;;7299398;32;20234;-58
2023/05/07 17:26:56;;;;;;;10.00;9.00;;;16.80;99.90;;;;;;7300406;32;20153;-58
2023/05/07 17:30:58;;;;;;;10.75;8.13;;;16.80;99.90;;;;;;7295841;32;20156;-58
2023/05/07 17:35:00;;;;;;;9.05;7.28;;;16.80;99.90;;;;;;7300207;32;20119;-57
2023/05/07 17:39:03;;;;;;;10.30;7.72;;;16.80;99.90;;;;;;7303378;32;20207;-57
2023/05/07 17:43:04;;;;;;;10.63;7.85;;;16.80;99.90;;;;;;7309477;32;20165;-58
2023/05/07 17:47:07;;;;;;;9.82;7.07;;;16.80;99.90;;;;;;7287440;32;20123;-58
2023/05/07 17:51:09;;;;;;;10.73;7.18;;;16.80;99.90;;;;;;7302993;32;20250;-58
2023/05/07 17:55:10;;;;;;;9.43;6.90;;;16.70;99.90;;;;;;7305298;32;20400;-57
2023/05/07 17:59:12;;;;;;;7.55;6.85;;;16.70;99.90;;;;;;7301441;32;20199;-57
2023/05/07 18:03:14;;;;;;;8.70;6.93;;;16.70;99.90;;;;;;7304982;32;20103;-58
2023/05/07 18:07:16;;;;;;;9.10;7.60;;;16.60;99.90;;;;;;7301128;32;20118;-58
2023/05/07 18:11:18;;;;;;;8.18;7.20;;;16.60;99.90;;;;;;7304780;32;20100;-57
2023/05/07 18:15:20;;;;;;;10.27;7.53;;;16.50;99.90;;;;;;7297975;32;20324;-58
2023/05/07 18:19:22;;;;;;;11.00;9.00;;;16.40;99.90;;;;;;7299039;32;20285;-58
2023/05/07 18:23:24;;;;;;;12.82;8.43;;;16.40;99.90;;;;;;7300828;32;20353;-59
2023/05/07 18:27:26;;;;;;;10.77;9.05;;;16.30;99.90;;;;;;7306180;32;20111;-58
2023/05/07 18:31:27;;;;;;;11.07;9.90;;;16.30;99.90;;;;;;7312515;32;21038;-58
2023/05/07 18:35:30;;;;;;;11.50;9.85;;;16.30;99.90;;;;;;7300536;32;20243;-58
2023/05/07 18:39:33;;;;;;;10.75;9.65;;;16.20;99.90;;;;;;7309940;32;20388;-58
2023/05/07 18:43:35;;;;;;;11.57;8.95;;;16.10;99.90;;;;;;7310673;32;20234;-58
2023/05/07 18:47:37;;;;;;;12.23;9.23;;;16.10;99.90;;;;;;7307453;32;20197;-58
2023/05/07 18:51:38;;;;;;;13.35;9.38;;;16.00;99.90;;;;;;7313069;32;20127;-58
2023/05/07 18:55:40;;;;;;;11.68;10.15;;;15.90;99.90;;;;;;7312060;32;20123;-57
2023/05/07 18:59:42;;;;;;;13.18;11.60;;;15.90;99.90;;;;;;7303681;32;20187;-56
2023/05/07 19:03:44;;;;;;;12.90;11.50;;;15.90;99.90;;;;;;7305148;32;20122;-56
2023/05/07 19:07:49;;;;;;;13.07;9.80;;;15.90;99.90;;;;;;7304217;32;20174;-56
2023/05/07 19:11:51;;;;;;;11.10;10.10;;;15.80;99.90;;;;;;7303920;32;20522;-56
2023/05/07 19:15:53;;;;;;;14.05;12.10;;;15.70;99.90;;;;;;7314153;32;20126;-55
2023/05/07 19:19:55;;;;;;;13.68;11.80;;;15.70;99.90;;;;;;7308418;32;20415;-55
2023/05/07 19:23:57;;;;;;;11.82;10.63;;;15.60;99.90;;;;;;7305590;32;20668;-55
2023/05/07 19:27:59;;;;;;;12.13;10.75;;;15.60;99.90;;;;;;7304866;32;20235;-55
2023/05/07 19:32:01;;;;;;;12.10;10.82;;;15.60;99.90;;;;;;7306336;32;20130;-55
2023/05/07 19:36:03;;;;;;;9.98;8.98;;;15.50;99.90;;;;;;7303147;32;20103;-55
2023/05/07 19:40:05;;;;;;;10.38;9.23;;;15.50;99.90;;;;;;7309504;32;20174;-55
2023/05/07 19:44:07;;;;;;;12.32;9.48;;;15.40;99.90;;;;;;7311865;32;20123;-55
2023/05/07 19:48:09;;;;;;;13.00;9.75;;;15.40;99.90;;;;;;7316468;32;20540;-55
2023/05/07 19:52:11;;;;;;;10.43;9.23;;;15.40;99.90;;;;;;7297786;32;20289;-54
2023/05/07 19:56:13;;;;;;;10.18;9.20;;;15.30;99.90;;;;;;7303151;32;20169;-55
2023/05/07 20:00:16;;;;;;;12.95;9.10;;;15.20;99.90;;;;;;7300023;32;20191;-55
2023/05/07 20:04:17;;;;;;;14.20;10.85;;;15.20;99.90;;;;;;7300728;32;20100;-55
2023/05/07 20:08:19;;;;;;;16.83;10.07;;;15.10;99.90;;;;;;7305562;32;20556;-55
2023/05/07 20:12:21;;;;;;;11.43;9.43;;;15.10;99.90;;;;;;7307698;32;20199;-55
2023/05/07 20:16:23;;;;;;;13.13;10.70;;;15.10;99.90;;;;;;7299607;32;20119;-55
2023/05/07 20:20:25;;;;;;;18.12;10.90;;;15.10;99.90;;;;;;7307995;32;20128;-56
2023/05/07 20:24:26;;;;;;;11.73;10.05;;;15.00;99.90;;;;;;7302437;32;20456;-56
2023/05/07 20:28:28;;;;;;;16.23;11.23;;;15.00;99.90;;;;;;7316606;32;20121;-56
2023/05/07 20:32:30;;;;;;;12.88;11.02;;;15.00;99.90;;;;;;7299407;32;20221;-55
2023/05/07 20:36:31;;;;;;;12.35;10.27;;;15.00;99.90;;;;;;7308546;32;20183;-55
2023/05/07 20:40:36;;;;;;;11.23;9.32;;;14.90;99.90;;;;;;7307017;32;20700;-55
2023/05/07 20:44:38;;;;;;;13.55;11.02;;;14.90;99.90;;;;;;7304505;32;20750;-55
2023/05/07 20:48:39;;;;;;;13.70;9.70;;;14.90;99.90;;;;;;7306193;32;20155;-56
2023/05/07 20:52:41;;;;;;;12.77;9.85;;;14.80;99.90;;;;;;7312468;32;20111;-55